createdAt,value
2018-07-17T00:01:23.038Z,17.60
2018-07-17T00:03:52.750Z,17.70
2018-07-17T00:06:22.446Z,17.70
2018-07-17T00:08:51.962Z,17.70
2018-07-17T00:11:21.584Z,17.70
2018-07-17T00:13:50.931Z,17.70
2018-07-17T00:16:20.854Z,17.60
2018-07-17T00:18:50.336Z,17.70
2018-07-17T00:21:19.828Z,17.70
2018-07-17T00:23:49.251Z,17.70
2018-07-17T00:26:18.642Z,17.50
2018-07-17T00:28:48.186Z,17.40
2018-07-17T00:31:17.778Z,17.30
2018-07-17T00:33:47.374Z,17.40
2018-07-17T00:36:16.725Z,17.30
2018-07-17T00:38:46.215Z,17.20
2018-07-17T00:41:15.836Z,17.10
2018-07-17T00:43:45.209Z,17.20
2018-07-17T00:46:14.596Z,17.20
2018-07-17T00:48:43.965Z,17.10
2018-07-17T00:51:13.323Z,17.10
2018-07-17T00:53:42.827Z,17.00
2018-07-17T00:56:12.318Z,17.00
2018-07-17T00:58:41.698Z,17.00
2018-07-17T01:01:10.283Z,16.90
2018-07-17T01:03:44.881Z,17.00
2018-07-17T01:06:19.681Z,16.80
2018-07-17T01:08:54.440Z,16.80
2018-07-17T01:11:29.237Z,16.80
2018-07-17T01:14:03.147Z,16.80
2018-07-17T01:16:32.690Z,16.80
2018-07-17T01:23:59.829Z,16.80
2018-07-17T01:26:29.171Z,16.70
2018-07-17T01:28:58.580Z,16.60
2018-07-17T01:31:27.928Z,16.50
2018-07-17T01:33:57.290Z,16.50
2018-07-17T01:36:26.737Z,16.50
2018-07-17T01:38:56.156Z,16.40
2018-07-17T01:41:25.628Z,16.50
2018-07-17T01:43:55.139Z,16.40
2018-07-17T01:46:24.564Z,16.50
2018-07-17T01:48:54.119Z,16.50
2018-07-17T01:51:23.530Z,16.30
2018-07-17T01:53:52.903Z,16.20
2018-07-17T01:58:51.185Z,16.20
2018-07-17T02:01:20.587Z,16.00
2018-07-17T02:03:50.021Z,16.00
2018-07-17T02:06:19.421Z,16.00
2018-07-17T02:08:48.813Z,15.90
2018-07-17T02:13:46.971Z,15.80
2018-07-17T02:16:16.443Z,15.80
2018-07-17T02:18:46.719Z,15.80
2018-07-17T02:23:45.028Z,15.70
2018-07-17T02:26:14.403Z,15.70
2018-07-17T02:28:43.815Z,15.90
2018-07-17T02:31:13.205Z,15.80
2018-07-17T02:33:42.710Z,15.80
2018-07-17T02:36:12.069Z,15.70
2018-07-17T02:38:41.466Z,15.60
2018-07-17T02:41:10.866Z,15.40
2018-07-17T02:43:40.274Z,15.30
2018-07-17T02:46:09.692Z,15.30
2018-07-17T02:48:39.187Z,15.30
2018-07-17T02:51:08.564Z,15.50
2018-07-17T02:53:38.503Z,15.60
2018-07-17T02:56:07.836Z,15.60
2018-07-17T02:58:37.243Z,15.60
2018-07-17T03:01:06.724Z,15.50
2018-07-17T03:03:36.097Z,15.60
2018-07-17T03:06:05.686Z,15.50
2018-07-17T03:08:35.032Z,15.40
2018-07-17T03:11:04.507Z,15.40
2018-07-17T03:13:33.959Z,15.30
2018-07-17T03:16:03.350Z,15.30
2018-07-17T03:18:32.775Z,15.20
2018-07-17T03:21:02.331Z,15.30
2018-07-17T03:23:31.865Z,15.20
2018-07-17T03:26:01.697Z,15.10
2018-07-17T03:28:31.178Z,15.20
2018-07-17T03:31:00.788Z,15.20
2018-07-17T03:33:30.210Z,15.20
2018-07-17T03:35:59.654Z,15.20
2018-07-17T03:38:29.160Z,15.10
2018-07-17T03:40:58.726Z,15.20
2018-07-17T03:43:28.099Z,15.10
2018-07-17T03:45:57.491Z,15.10
2018-07-17T03:48:27.099Z,15.20
2018-07-17T03:50:56.577Z,15.30
2018-07-17T03:53:26.361Z,15.20
2018-07-17T03:55:55.753Z,15.10
2018-07-17T03:58:25.228Z,15.10
2018-07-17T04:00:54.810Z,15.10
2018-07-17T04:03:24.278Z,15.10
2018-07-17T04:05:53.708Z,15.30
2018-07-17T04:08:23.091Z,15.30
2018-07-17T04:10:52.479Z,15.30
2018-07-17T04:13:21.877Z,15.30
2018-07-17T04:15:51.216Z,15.20
2018-07-17T04:18:20.686Z,15.20
2018-07-17T04:20:50.280Z,15.30
2018-07-17T04:23:19.665Z,15.30
2018-07-17T04:25:49.032Z,15.50
2018-07-17T04:28:18.381Z,15.90
2018-07-17T04:30:48.599Z,16.10
2018-07-17T04:33:18.012Z,16.10
2018-07-17T04:35:47.367Z,15.90
2018-07-17T04:38:16.741Z,16.00
2018-07-17T04:40:46.108Z,16.40
2018-07-17T04:43:15.457Z,16.60
2018-07-17T04:45:44.952Z,16.70
2018-07-17T04:48:14.298Z,16.80
2018-07-17T04:50:43.714Z,16.80
2018-07-17T04:53:13.135Z,16.80
2018-07-17T04:55:42.532Z,17.00
2018-07-17T04:58:11.893Z,16.90
2018-07-17T05:00:41.413Z,16.90
2018-07-17T05:03:10.827Z,16.90
2018-07-17T05:05:40.318Z,16.90
2018-07-17T05:08:09.791Z,16.80
2018-07-17T05:13:08.233Z,17.00
2018-07-17T05:15:37.840Z,17.20
2018-07-17T05:18:07.305Z,17.40
2018-07-17T05:20:36.712Z,17.70
2018-07-17T05:23:06.413Z,18.00
2018-07-17T05:25:35.928Z,18.30
2018-07-17T05:28:05.339Z,18.50
2018-07-17T05:30:34.718Z,18.60
2018-07-17T05:33:04.108Z,18.80
2018-07-17T05:35:33.544Z,19.00
2018-07-17T05:38:02.955Z,19.20
2018-07-17T05:40:32.378Z,19.50
2018-07-17T05:43:01.761Z,19.30
2018-07-17T05:45:31.097Z,19.50
2018-07-17T05:48:00.469Z,19.60
2018-07-17T05:50:29.862Z,20.00
2018-07-17T05:52:59.249Z,20.00
2018-07-17T05:55:28.788Z,19.60
2018-07-17T05:57:58.180Z,20.20
2018-07-17T06:00:27.624Z,20.00
2018-07-17T06:05:25.971Z,20.20
2018-07-17T06:07:55.364Z,20.20
2018-07-17T06:10:24.878Z,20.10
2018-07-17T06:12:54.467Z,20.10
2018-07-17T06:15:23.804Z,20.20
2018-07-17T06:17:53.207Z,20.60
2018-07-17T06:20:22.610Z,20.60
2018-07-17T06:22:51.993Z,20.60
2018-07-17T06:25:21.439Z,20.90
2018-07-17T06:27:57.289Z,21.30
2018-07-17T06:30:26.831Z,21.60
2018-07-17T06:35:25.082Z,21.60
2018-07-17T06:37:54.480Z,21.60
2018-07-17T06:40:23.798Z,22.10
2018-07-17T06:42:53.125Z,22.60
2018-07-17T06:45:22.552Z,22.30
2018-07-17T06:47:51.976Z,22.40
2018-07-17T06:50:21.866Z,22.60
2018-07-17T06:52:51.170Z,22.80
2018-07-17T06:55:20.653Z,23.10
2018-07-17T06:57:50.063Z,23.10
2018-07-17T07:00:19.446Z,23.50
2018-07-17T07:02:48.990Z,23.60
2018-07-17T07:05:18.729Z,23.20
2018-07-17T07:07:48.105Z,23.50
2018-07-17T07:10:18.100Z,23.30
2018-07-17T07:12:47.674Z,23.10
2018-07-17T07:15:17.067Z,23.70
2018-07-17T07:17:46.625Z,23.30
2018-07-17T07:20:16.084Z,23.30
2018-07-17T07:25:14.368Z,23.90
2018-07-17T07:27:43.923Z,24.20
2018-07-17T07:30:13.339Z,24.50
2018-07-17T07:32:42.968Z,25.40
2018-07-17T07:35:12.457Z,24.70
2018-07-17T07:37:41.868Z,25.20
2018-07-17T07:40:11.338Z,25.60
2018-07-17T07:42:40.743Z,25.00
2018-07-17T07:45:10.179Z,25.20
2018-07-17T07:47:39.784Z,24.60
2018-07-17T07:50:10.035Z,24.70
2018-07-17T07:52:39.528Z,25.10
2018-07-17T07:55:09.020Z,25.40
2018-07-17T07:57:38.544Z,26.00
2018-07-17T08:00:08.150Z,25.80
2018-07-17T08:02:37.829Z,26.00
2018-07-17T08:05:07.536Z,26.00
2018-07-17T08:07:37.026Z,26.30
2018-07-17T08:10:07.019Z,27.40
2018-07-17T08:15:06.477Z,27.00
2018-07-17T08:17:36.047Z,27.40
2018-07-17T08:20:05.576Z,27.70
2018-07-17T08:22:35.219Z,28.10
2018-07-17T08:25:04.937Z,27.60
2018-07-17T08:27:34.611Z,28.30
2018-07-17T08:30:04.221Z,28.10
2018-07-17T08:32:34.324Z,28.50
2018-07-17T08:35:03.824Z,28.20
2018-07-17T08:37:34.072Z,27.70
2018-07-17T08:40:03.575Z,27.70
2018-07-17T08:42:33.399Z,29.30
2018-07-17T08:45:02.927Z,29.10
2018-07-17T08:47:32.428Z,29.30
2018-07-17T08:50:02.706Z,28.80
2018-07-17T08:52:35.365Z,28.90
2018-07-17T08:55:05.774Z,29.50
2018-07-17T08:57:36.071Z,29.80
2018-07-17T09:00:06.711Z,30.00
2018-07-17T09:02:36.138Z,29.70
2018-07-17T09:07:34.485Z,30.10
2018-07-17T09:10:04.216Z,29.30
2018-07-17T09:12:33.672Z,29.40
2018-07-17T09:15:03.219Z,29.80
2018-07-17T09:17:32.582Z,29.90
2018-07-17T09:20:02.021Z,30.50
2018-07-17T09:22:31.438Z,30.40
2018-07-17T09:25:00.866Z,30.40
2018-07-17T09:27:30.255Z,30.40
2018-07-17T09:29:59.605Z,30.00
2018-07-17T09:32:28.952Z,30.80
2018-07-17T09:34:58.422Z,31.40
2018-07-17T09:42:25.692Z,30.80
2018-07-17T09:44:55.114Z,30.40
2018-07-17T09:47:24.619Z,30.90
2018-07-17T09:49:54.195Z,30.50
2018-07-17T09:52:24.783Z,30.30
2018-07-17T09:54:54.210Z,30.00
2018-07-17T09:57:23.696Z,30.70
2018-07-17T09:59:53.157Z,31.40
2018-07-17T10:02:28.344Z,30.90
2018-07-17T10:07:27.791Z,29.70
2018-07-17T10:09:57.194Z,29.20
2018-07-17T10:12:26.797Z,28.60
2018-07-17T10:14:56.439Z,28.20
2018-07-17T10:17:25.835Z,28.10
2018-07-17T10:19:55.232Z,28.10
2018-07-17T10:22:24.825Z,28.00
2018-07-17T10:24:54.315Z,27.90
2018-07-17T10:27:23.760Z,28.10
2018-07-17T10:29:53.334Z,28.60
2018-07-17T10:32:22.752Z,29.50
2018-07-17T10:34:52.223Z,29.80
2018-07-17T10:37:21.619Z,29.10
2018-07-17T10:39:51.999Z,29.00
2018-07-17T10:42:22.530Z,28.90
2018-07-17T10:44:52.206Z,28.70
2018-07-17T10:47:21.630Z,29.00
2018-07-17T10:49:51.051Z,28.80
2018-07-17T10:52:21.403Z,28.50
2018-07-17T10:54:50.925Z,28.30
2018-07-17T10:57:21.307Z,28.10
2018-07-17T10:59:50.817Z,28.20
2018-07-17T11:04:50.175Z,28.50
2018-07-17T11:07:19.931Z,28.50
2018-07-17T11:09:49.483Z,28.70
2018-07-17T11:12:18.911Z,28.80
2018-07-17T11:14:48.398Z,29.80
2018-07-17T11:17:17.820Z,30.30
2018-07-17T11:19:47.317Z,30.70
2018-07-17T11:22:17.645Z,30.60
2018-07-17T11:24:47.165Z,30.60
2018-07-17T11:27:16.622Z,31.00
2018-07-17T11:29:46.017Z,30.80
2018-07-17T11:34:44.441Z,32.10
2018-07-17T11:37:13.829Z,32.90
2018-07-17T11:39:43.199Z,32.80
2018-07-17T11:42:12.832Z,31.90
2018-07-17T11:44:42.343Z,31.40
2018-07-17T11:47:11.828Z,31.40
2018-07-17T11:49:41.188Z,31.40
2018-07-17T11:52:10.681Z,31.60
2018-07-17T11:54:40.193Z,30.90
2018-07-17T11:57:09.688Z,31.60
2018-07-17T11:59:39.208Z,31.40
2018-07-17T12:02:08.816Z,30.70
2018-07-17T12:04:38.408Z,30.60
2018-07-17T12:07:08.243Z,30.30
2018-07-17T12:09:37.625Z,31.00
2018-07-17T12:12:07.176Z,31.80
2018-07-17T12:14:36.610Z,31.00
2018-07-17T12:17:06.143Z,30.00
2018-07-17T12:19:35.557Z,29.30
2018-07-17T12:22:05.068Z,29.20
2018-07-17T12:24:34.528Z,29.90
2018-07-17T12:27:03.964Z,29.80
2018-07-17T12:29:33.321Z,29.80
2018-07-17T12:32:02.968Z,29.80
2018-07-17T12:34:32.492Z,29.60
2018-07-17T12:37:01.908Z,29.70
2018-07-17T12:39:31.364Z,29.60
2018-07-17T12:42:00.837Z,30.10
2018-07-17T12:46:59.208Z,29.60
2018-07-17T12:49:29.316Z,29.20
2018-07-17T12:51:59.614Z,28.70
2018-07-17T12:54:29.134Z,28.80
2018-07-17T12:56:58.625Z,28.30
2018-07-17T12:59:28.204Z,28.20
2018-07-17T13:01:57.825Z,27.90
2018-07-17T13:04:27.900Z,27.70
2018-07-17T13:06:57.467Z,27.40
2018-07-17T13:09:27.611Z,26.90
2018-07-17T13:11:57.163Z,27.30
2018-07-17T13:14:26.677Z,27.10
2018-07-17T13:16:59.448Z,27.00
2018-07-17T13:19:29.095Z,27.30
2018-07-17T13:21:58.581Z,27.10
2018-07-17T13:24:28.144Z,27.20
2018-07-17T13:26:57.596Z,28.00
2018-07-17T13:29:27.094Z,28.50
2018-07-17T13:31:56.448Z,28.90
2018-07-17T13:34:25.873Z,29.10
2018-07-17T13:36:55.338Z,29.50
2018-07-17T13:39:24.737Z,30.40
2018-07-17T13:41:54.173Z,31.30
2018-07-17T13:44:23.624Z,31.80
2018-07-17T13:46:53.125Z,31.80
2018-07-17T13:49:22.792Z,32.10
2018-07-17T13:51:52.341Z,32.50
2018-07-17T13:54:22.462Z,32.20
2018-07-17T13:56:52.766Z,32.00
2018-07-17T13:59:22.703Z,32.10
2018-07-17T14:01:52.294Z,31.60
2018-07-17T14:04:22.009Z,32.50
2018-07-17T14:06:51.845Z,31.80
2018-07-17T14:09:21.649Z,31.90
2018-07-17T14:11:51.653Z,31.10
2018-07-17T14:14:21.454Z,30.60
2018-07-17T14:16:51.431Z,30.30
2018-07-17T14:19:21.040Z,31.00
2018-07-17T14:21:50.520Z,30.00
2018-07-17T14:24:19.952Z,29.90
2018-07-17T14:26:49.592Z,30.10
2018-07-17T14:29:19.218Z,29.50
2018-07-17T14:31:48.977Z,30.50
2018-07-17T14:34:18.772Z,31.50
2018-07-17T14:36:48.297Z,31.50
2018-07-17T14:39:17.793Z,30.60
2018-07-17T14:41:47.203Z,30.10
2018-07-17T14:44:16.616Z,29.60
2018-07-17T14:46:46.092Z,29.80
2018-07-17T14:49:15.555Z,30.50
2018-07-17T14:51:45.048Z,31.60
2018-07-17T14:54:14.953Z,31.40
2018-07-17T14:56:44.369Z,31.70
2018-07-17T14:59:13.817Z,31.20
2018-07-17T15:01:43.276Z,29.70
2018-07-17T15:04:12.710Z,29.30
2018-07-17T15:06:42.180Z,29.30
2018-07-17T15:09:11.588Z,29.50
2018-07-17T15:11:40.977Z,29.90
2018-07-17T15:14:10.475Z,30.60
2018-07-17T15:16:39.867Z,30.60
2018-07-17T15:19:10.153Z,29.50
2018-07-17T15:21:39.523Z,29.50
2018-07-17T15:24:08.947Z,29.50
2018-07-17T15:26:38.336Z,29.10
2018-07-17T15:29:07.722Z,29.10
2018-07-17T15:31:37.354Z,29.20
2018-07-17T15:34:06.957Z,29.40
2018-07-17T15:36:36.523Z,29.30
2018-07-17T15:39:08.799Z,29.30
2018-07-17T15:41:38.837Z,29.30
2018-07-17T15:44:08.587Z,29.20
2018-07-17T15:46:38.037Z,28.70
2018-07-17T15:49:07.564Z,28.80
2018-07-17T15:51:37.153Z,28.80
2018-07-17T15:54:06.831Z,28.70
2018-07-17T15:56:36.457Z,28.90
2018-07-17T15:59:06.207Z,28.80
2018-07-17T16:01:36.719Z,28.80
2018-07-17T16:04:06.338Z,28.90
2018-07-17T16:06:36.064Z,29.30
2018-07-17T16:09:07.841Z,29.00
2018-07-17T16:11:38.015Z,29.00
2018-07-17T16:14:08.520Z,28.80
2018-07-17T16:19:07.469Z,28.80
2018-07-17T16:21:37.601Z,29.00
2018-07-17T16:24:07.270Z,29.10
2018-07-17T16:26:37.006Z,29.10
2018-07-17T16:29:06.734Z,29.40
2018-07-17T16:31:36.237Z,29.70
2018-07-17T16:34:05.858Z,29.70
2018-07-17T16:36:35.583Z,29.20
2018-07-17T16:39:07.957Z,29.00
2018-07-17T16:41:37.401Z,28.70
2018-07-17T16:44:07.637Z,28.60
2018-07-17T16:46:37.022Z,28.60
2018-07-17T16:49:06.557Z,28.20
2018-07-17T16:51:36.004Z,27.80
2018-07-17T16:54:05.662Z,27.70
2018-07-17T16:56:35.110Z,27.70
2018-07-17T16:59:04.807Z,27.60
2018-07-17T17:04:04.187Z,27.40
2018-07-17T17:06:33.597Z,27.50
2018-07-17T17:09:03.168Z,27.80
2018-07-17T17:14:01.955Z,27.60
2018-07-17T17:16:31.443Z,27.50
2018-07-17T17:19:00.825Z,27.20
2018-07-17T17:21:30.346Z,27.00
2018-07-17T17:23:59.866Z,26.90
2018-07-17T17:26:29.178Z,26.70
2018-07-17T17:28:58.683Z,26.60
2018-07-17T17:31:28.106Z,26.60
2018-07-17T17:33:57.615Z,26.60
2018-07-17T17:36:27.137Z,26.50
2018-07-17T17:38:56.463Z,26.50
2018-07-17T17:41:25.838Z,26.50
2018-07-17T17:43:55.345Z,26.40
2018-07-17T17:46:24.714Z,26.40
2018-07-17T17:48:54.094Z,26.40
2018-07-17T17:51:23.643Z,26.40
2018-07-17T17:53:53.352Z,26.30
2018-07-17T17:56:22.821Z,26.30
2018-07-17T17:58:52.416Z,26.10
2018-07-17T18:01:21.957Z,26.10
2018-07-17T18:03:51.506Z,26.00
2018-07-17T18:06:20.917Z,25.90
2018-07-17T18:11:19.362Z,25.80
2018-07-17T18:13:49.614Z,25.80
2018-07-17T18:16:18.962Z,25.70
2018-07-17T18:18:48.378Z,25.80
2018-07-17T18:21:17.870Z,25.70
2018-07-17T18:23:47.456Z,25.70
2018-07-17T18:26:17.009Z,25.60
2018-07-17T18:28:46.513Z,25.60
2018-07-17T18:31:15.965Z,25.60
2018-07-17T18:36:15.044Z,25.40
2018-07-17T18:38:44.549Z,25.40
2018-07-17T18:41:14.014Z,25.40
2018-07-17T18:43:43.526Z,25.40
2018-07-17T18:46:13.044Z,25.30
2018-07-17T18:48:47.746Z,25.30
2018-07-17T18:51:18.107Z,25.40
2018-07-17T18:53:47.631Z,25.40
2018-07-17T18:56:17.045Z,25.40
2018-07-17T18:58:46.496Z,25.30
2018-07-17T19:01:15.905Z,25.40
2018-07-17T19:03:45.262Z,25.30
2018-07-17T19:06:14.666Z,25.30
2018-07-17T19:08:44.048Z,25.20
2018-07-17T19:11:13.653Z,25.10
2018-07-17T19:13:43.108Z,25.00
2018-07-17T19:16:12.495Z,25.00
2018-07-17T19:18:41.925Z,25.00
2018-07-17T19:21:11.313Z,25.00
2018-07-17T19:23:40.922Z,24.90
2018-07-17T19:26:10.344Z,24.80
2018-07-17T19:28:39.747Z,24.80
2018-07-17T19:31:09.182Z,24.70
2018-07-17T19:33:38.537Z,24.60
2018-07-17T19:36:08.396Z,24.40
2018-07-17T19:38:37.762Z,24.20
2018-07-17T19:41:07.469Z,24.00
2018-07-17T19:43:36.984Z,23.90
2018-07-17T19:46:06.545Z,23.70
2018-07-17T19:48:36.038Z,23.50
2018-07-17T19:51:05.514Z,23.30
2018-07-17T19:53:35.090Z,23.10
2018-07-17T19:56:04.728Z,23.00
2018-07-17T19:58:34.126Z,22.90
2018-07-17T20:01:03.627Z,22.80
2018-07-17T20:03:33.038Z,22.70
2018-07-17T20:06:02.509Z,22.60
2018-07-17T20:08:32.034Z,22.50
2018-07-17T20:11:01.781Z,22.40
2018-07-17T20:13:31.151Z,22.40
2018-07-17T20:16:00.514Z,22.30
2018-07-17T20:18:31.434Z,22.30
2018-07-17T20:23:29.769Z,22.20
2018-07-17T20:26:00.328Z,22.10
2018-07-17T20:28:29.834Z,22.10
2018-07-17T20:30:59.641Z,22.10
2018-07-17T20:33:29.327Z,22.10
2018-07-17T20:36:00.140Z,22.10
2018-07-17T20:38:29.624Z,22.00
2018-07-17T20:40:59.014Z,22.00
2018-07-17T20:43:28.702Z,22.00
2018-07-17T20:45:58.117Z,22.00
2018-07-17T20:48:27.693Z,21.90
2018-07-17T20:50:57.234Z,22.00
2018-07-17T20:55:55.653Z,21.90
2018-07-17T20:58:25.143Z,21.90
2018-07-17T21:00:54.549Z,21.90
2018-07-17T21:03:23.963Z,21.80
2018-07-17T21:05:53.718Z,21.80
2018-07-17T21:08:24.190Z,21.70
2018-07-17T21:10:53.551Z,21.80
2018-07-17T21:13:23.143Z,21.80
2018-07-17T21:15:52.633Z,21.90
2018-07-17T21:18:22.048Z,21.90
2018-07-17T21:20:51.553Z,21.90
2018-07-17T21:23:21.061Z,21.80
2018-07-17T21:25:50.532Z,21.90
2018-07-17T21:28:19.902Z,21.90
2018-07-17T21:30:49.250Z,21.90
2018-07-17T21:33:18.621Z,21.90
2018-07-17T21:38:17.051Z,21.80
2018-07-17T21:40:46.591Z,21.70
2018-07-17T21:43:16.233Z,21.60
2018-07-17T21:45:46.006Z,21.50
2018-07-17T21:48:15.560Z,21.50
2018-07-17T21:50:45.147Z,21.40
2018-07-17T21:53:14.587Z,21.30
2018-07-17T21:55:43.972Z,21.30
2018-07-17T21:58:13.500Z,21.30
2018-07-17T22:00:42.968Z,21.20
2018-07-17T22:03:12.392Z,21.20
2018-07-17T22:05:41.833Z,21.10
2018-07-17T22:08:11.198Z,21.10
2018-07-17T22:10:40.627Z,21.10
2018-07-17T22:13:10.151Z,21.10
2018-07-17T22:15:39.573Z,21.00
2018-07-17T22:18:08.998Z,21.10
2018-07-17T22:20:38.398Z,21.00
2018-07-17T22:25:36.790Z,21.00
2018-07-17T22:28:06.499Z,20.80
2018-07-17T22:30:35.844Z,20.80
2018-07-17T22:33:05.407Z,20.80
2018-07-17T22:35:34.821Z,20.80
2018-07-17T22:38:04.473Z,20.80
2018-07-17T22:40:33.930Z,20.70
2018-07-17T22:43:03.298Z,20.70
2018-07-17T22:45:32.632Z,20.60
2018-07-17T22:48:02.141Z,20.50
2018-07-17T22:50:31.478Z,20.50
2018-07-17T22:53:01.293Z,20.50
2018-07-17T22:55:30.640Z,20.50
2018-07-17T22:57:59.977Z,20.50
2018-07-17T23:00:30.222Z,20.40
2018-07-17T23:02:59.725Z,20.40
2018-07-17T23:05:29.851Z,20.00
2018-07-17T23:07:59.667Z,19.70
2018-07-17T23:10:29.147Z,19.70
2018-07-17T23:12:58.625Z,19.80
2018-07-17T23:15:28.260Z,19.80
2018-07-17T23:17:57.683Z,19.80
2018-07-17T23:20:27.176Z,19.70
2018-07-17T23:22:57.817Z,19.70
2018-07-17T23:25:29.671Z,19.60
2018-07-17T23:27:59.844Z,19.60
2018-07-17T23:32:58.599Z,19.50
2018-07-17T23:35:28.205Z,19.40
2018-07-17T23:37:57.670Z,19.30
2018-07-17T23:40:27.113Z,19.40
2018-07-17T23:42:56.678Z,19.30
2018-07-17T23:47:55.035Z,19.10
2018-07-17T23:50:24.441Z,19.20
2018-07-17T23:55:23.089Z,19.10
2018-07-17T23:57:52.512Z,19.00
